Wetterdaten: Woche 12.07.10 - 18.07.10 (KW28)
Datum Zeit Temperatur Luftfeuchte Luftdruck Niederschlag Windrichtung Sonnenschein Solar Wind
12.07.2010 00:00 17,9 C 96 % 1016,3 hPa 0,2 l/m N 0,00 h 0 W/m 2,0 km/h (1 Bft)
12.07.2010 01:00 17,8 C 96 % 1015,6 hPa 0,0 l/m N 0,00 h 0 W/m 1,6 km/h (1 Bft)
12.07.2010 02:00 17,2 C 97 % 1014,5 hPa 0,0 l/m N 0,00 h 0 W/m 2,8 km/h (1 Bft)
12.07.2010 03:00 17,0 C 96 % 1014,0 hPa 0,0 l/m O-NO 0,00 h 0 W/m 2,9 km/h (1 Bft)
12.07.2010 04:00 16,4 C 97 % 1013,9 hPa 0,0 l/m O-NO 0,00 h 0 W/m 1,5 km/h (1 Bft)
12.07.2010 05:00 16,0 C 98 % 1013,6 hPa 0,2 l/m O-NO 0,17 h 13 W/m 2,0 km/h (1 Bft)
12.07.2010 06:00 16,3 C 98 % 1013,5 hPa 0,0 l/m O-NO 0,33 h 69 W/m 2,3 km/h (1 Bft)
12.07.2010 07:00 17,9 C 95 % 1013,1 hPa 0,0 l/m N 1,00 h 235 W/m 1,3 km/h (1 Bft)
12.07.2010 08:00 19,8 C 89 % 1012,7 hPa 0,0 l/m N 0,92 h 360 W/m 2,0 km/h (1 Bft)
12.07.2010 09:00 22,0 C 81 % 1012,4 hPa 0,0 l/m SW 1,00 h 525 W/m 7,1 km/h (2 Bft)
12.07.2010 10:00 24,4 C 68 % 1012,5 hPa 0,0 l/m SO 1,00 h 688 W/m 6,1 km/h (2 Bft)
12.07.2010 11:00 26,1 C 60 % 1012,6 hPa 0,0 l/m SO 1,00 h 792 W/m 5,3 km/h (1 Bft)
12.07.2010 12:00 27,7 C 54 % 1012,4 hPa 0,0 l/m SW 1,00 h 848 W/m 7,6 km/h (2 Bft)
12.07.2010 13:00 29,0 C 51 % 1012,0 hPa 0,0 l/m S 1,00 h 877 W/m 9,8 km/h (2 Bft)
12.07.2010 14:00 29,7 C 49 % 1011,0 hPa 0,0 l/m W 1,00 h 846 W/m 10,3 km/h (2 Bft)
12.07.2010 15:00 30,2 C 48 % 1010,2 hPa 0,0 l/m SW 1,00 h 763 W/m 9,7 km/h (2 Bft)
12.07.2010 16:00 30,5 C 48 % 1009,4 hPa 0,0 l/m NW 1,00 h 655 W/m 8,6 km/h (2 Bft)
12.07.2010 17:00 30,6 C 45 % 1008,6 hPa 0,0 l/m SW 0,92 h 526 W/m 8,5 km/h (2 Bft)
12.07.2010 18:00 29,6 C 50 % 1008,8 hPa 0,0 l/m W 0,42 h 227 W/m 4,5 km/h (1 Bft)
12.07.2010 19:00 25,8 C 60 % 1009,9 hPa 0,0 l/m N-NW 0,00 h 80 W/m 26,8 km/h (4 Bft)
12.07.2010 20:00 21,6 C 63 % 1011,4 hPa 0,0 l/m N-NW 0,00 h 28 W/m 27,8 km/h (4 Bft)
12.07.2010 21:00 19,8 C 73 % 1014,0 hPa 2,4 l/m W-SW 0,00 h 0 W/m 17,7 km/h (3 Bft)
12.07.2010 22:00 17,7 C 87 % 1014,7 hPa 0,6 l/m W-SW 0,00 h 0 W/m 10,2 km/h (2 Bft)
12.07.2010 23:00 17,2 C 94 % 1013,3 hPa 0,8 l/m W-SW 0,00 h 0 W/m 13,0 km/h (3 Bft)
13.07.2010 00:00 16,9 C 94 % 1012,7 hPa 0,2 l/m W 0,00 h 0 W/m 6,7 km/h (2 Bft)
13.07.2010 01:00 16,6 C 95 % 1012,3 hPa 0,0 l/m N 0,00 h 0 W/m 2,0 km/h (1 Bft)
13.07.2010 02:00 16,3 C 96 % 1011,5 hPa 0,0 l/m W 0,00 h 0 W/m 1,9 km/h (1 Bft)
13.07.2010 03:00 16,0 C 96 % 1011,2 hPa 0,0 l/m N 0,00 h 0 W/m 1,2 km/h (1 Bft)
13.07.2010 04:00 15,3 C 97 % 1010,9 hPa 0,0 l/m N 0,00 h 0 W/m 0,5 km/h (0 Bft)
13.07.2010 05:00 15,2 C 98 % 1011,2 hPa 0,0 l/m N 0,00 h 6 W/m 1,2 km/h (1 Bft)
13.07.2010 06:00 15,6 C 98 % 1011,6 hPa 0,0 l/m N 0,08 h 46 W/m 0,5 km/h (0 Bft)
13.07.2010 07:00 16,5 C 97 % 1011,4 hPa 0,0 l/m N 0,25 h 146 W/m 0,8 km/h (0 Bft)
13.07.2010 08:00 17,6 C 95 % 1011,3 hPa 0,0 l/m SW 0,17 h 226 W/m 2,9 km/h (1 Bft)
13.07.2010 09:00 19,8 C 89 % 1011,4 hPa 0,0 l/m SW 1,00 h 486 W/m 6,8 km/h (2 Bft)
13.07.2010 10:00 21,1 C 84 % 1011,4 hPa 0,0 l/m SW 0,42 h 445 W/m 8,8 km/h (2 Bft)
13.07.2010 11:00 22,5 C 77 % 1011,4 hPa 0,0 l/m SW 0,25 h 446 W/m 11,2 km/h (2 Bft)
13.07.2010 12:00 23,6 C 72 % 1011,2 hPa 0,0 l/m W-SW 0,83 h 747 W/m 12,6 km/h (3 Bft)
13.07.2010 13:00 25,5 C 66 % 1010,9 hPa 0,0 l/m SW 0,92 h 820 W/m 15,4 km/h (3 Bft)
13.07.2010 14:00 26,2 C 62 % 1010,6 hPa 0,0 l/m W-SW 1,00 h 783 W/m 16,6 km/h (3 Bft)
13.07.2010 15:00 26,8 C 57 % 1010,4 hPa 0,0 l/m SW 1,00 h 746 W/m 17,3 km/h (3 Bft)
13.07.2010 16:00 27,0 C 55 % 1010,1 hPa 0,0 l/m SW 1,00 h 652 W/m 19,0 km/h (3 Bft)
13.07.2010 17:00 27,2 C 54 % 1009,7 hPa 0,0 l/m W-SW 1,00 h 512 W/m 16,6 km/h (3 Bft)
13.07.2010 18:00 26,7 C 54 % 1009,5 hPa 0,0 l/m W 0,92 h 334 W/m 13,6 km/h (3 Bft)
13.07.2010 19:00 25,8 C 59 % 1009,4 hPa 0,0 l/m W-SW 0,33 h 91 W/m 8,3 km/h (2 Bft)
13.07.2010 20:00 23,9 C 68 % 1009,5 hPa 0,0 l/m W 0,00 h 23 W/m 2,9 km/h (1 Bft)
13.07.2010 21:00 21,6 C 79 % 1009,6 hPa 0,0 l/m N 0,00 h 7 W/m 0,3 km/h (0 Bft)
13.07.2010 22:00 20,1 C 84 % 1009,8 hPa 0,0 l/m N 0,00 h 0 W/m 0,5 km/h (0 Bft)
13.07.2010 23:00 19,2 C 87 % 1009,9 hPa 0,0 l/m N 0,00 h 0 W/m 1,7 km/h (1 Bft)
14.07.2010 00:00 18,7 C 88 % 1009,8 hPa 0,0 l/m N 0,00 h 0 W/m 2,3 km/h (1 Bft)
14.07.2010 01:00 18,5 C 90 % 1009,7 hPa 0,0 l/m N 0,00 h 0 W/m 0,3 km/h (0 Bft)
14.07.2010 02:00 18,3 C 90 % 1009,6 hPa 0,0 l/m N-NW 0,00 h 0 W/m 5,1 km/h (1 Bft)
14.07.2010 03:00 19,0 C 84 % 1009,3 hPa 0,0 l/m N-NW 0,00 h 0 W/m 6,7 km/h (2 Bft)
14.07.2010 04:00 18,7 C 87 % 1009,3 hPa 0,0 l/m S-SW 0,00 h 0 W/m 3,2 km/h (1 Bft)
14.07.2010 05:00 18,3 C 92 % 1009,1 hPa 0,0 l/m N 0,00 h 8 W/m 0,4 km/h (0 Bft)
14.07.2010 06:00 18,4 C 91 % 1009,1 hPa 0,0 l/m N 0,17 h 46 W/m 1,2 km/h (1 Bft)
14.07.2010 07:00 19,6 C 88 % 1009,1 hPa 0,0 l/m N 0,92 h 190 W/m 0,7 km/h (0 Bft)
14.07.2010 08:00 21,9 C 82 % 1009,1 hPa 0,0 l/m S-SW 1,00 h 367 W/m 2,5 km/h (1 Bft)
14.07.2010 09:00 24,6 C 74 % 1008,8 hPa 0,0 l/m SO 1,00 h 520 W/m 5,6 km/h (1 Bft)
14.07.2010 10:00 26,4 C 66 % 1008,7 hPa 0,0 l/m S 1,00 h 666 W/m 8,7 km/h (2 Bft)
14.07.2010 11:00 27,9 C 60 % 1008,4 hPa 0,0 l/m SW 1,00 h 764 W/m 7,2 km/h (2 Bft)
14.07.2010 12:00 29,0 C 55 % 1007,9 hPa 0,0 l/m SO 0,92 h 774 W/m 8,0 km/h (2 Bft)
14.07.2010 13:00 30,4 C 49 % 1007,3 hPa 0,0 l/m O-SO 1,00 h 850 W/m 12,1 km/h (2 Bft)
14.07.2010 14:00 31,5 C 44 % 1006,7 hPa 0,0 l/m SO 1,00 h 816 W/m 11,5 km/h (2 Bft)
14.07.2010 15:00 32,0 C 40 % 1005,9 hPa 0,0 l/m SO 1,00 h 756 W/m 12,2 km/h (2 Bft)
14.07.2010 16:00 32,5 C 36 % 1005,2 hPa 0,0 l/m O-SO 1,00 h 659 W/m 9,8 km/h (2 Bft)
14.07.2010 17:00 32,6 C 34 % 1004,3 hPa 0,0 l/m SO 1,00 h 506 W/m 9,0 km/h (2 Bft)
14.07.2010 18:00 32,5 C 36 % 1003,4 hPa 0,0 l/m SO 1,00 h 340 W/m 11,8 km/h (2 Bft)
14.07.2010 19:00 30,5 C 48 % 1003,3 hPa 0,0 l/m SO 0,33 h 90 W/m 4,7 km/h (1 Bft)
14.07.2010 20:00 27,1 C 65 % 1003,0 hPa 0,0 l/m N 0,00 h 20 W/m 1,3 km/h (1 Bft)
14.07.2010 21:00 24,6 C 74 % 1003,7 hPa 0,0 l/m W 0,00 h 5 W/m 0,4 km/h (0 Bft)
14.07.2010 22:00 22,4 C 71 % 1006,9 hPa 2,6 l/m W-NW 0,00 h 0 W/m 35,8 km/h (5 Bft)
14.07.2010 23:00 18,8 C 93 % 1007,9 hPa 2,8 l/m W-SW 0,00 h 0 W/m 11,7 km/h (2 Bft)
15.07.2010 00:00 19,0 C 95 % 1008,4 hPa 0,2 l/m S-SW 0,00 h 0 W/m 4,7 km/h (1 Bft)
15.07.2010 01:00 18,8 C 95 % 1009,3 hPa 0,0 l/m SO 0,00 h 0 W/m 5,5 km/h (1 Bft)
15.07.2010 02:00 18,6 C 96 % 1009,7 hPa 0,0 l/m S-SW 0,00 h 0 W/m 2,7 km/h (1 Bft)
15.07.2010 03:00 18,7 C 96 % 1010,1 hPa 0,0 l/m N 0,00 h 0 W/m 1,3 km/h (1 Bft)
15.07.2010 04:00 18,9 C 96 % 1010,5 hPa 0,0 l/m N 0,00 h 0 W/m 1,5 km/h (1 Bft)
15.07.2010 05:00 18,9 C 97 % 1010,9 hPa 2,0 l/m S 0,00 h 0 W/m 2,8 km/h (1 Bft)
15.07.2010 06:00 18,8 C 97 % 1011,3 hPa 3,4 l/m N 0,00 h 9 W/m 1,3 km/h (1 Bft)
15.07.2010 07:00 18,8 C 98 % 1012,1 hPa 1,6 l/m N 0,00 h 18 W/m 5,9 km/h (2 Bft)
15.07.2010 08:00 18,3 C 97 % 1012,6 hPa 2,8 l/m N-NW 0,00 h 43 W/m 2,5 km/h (1 Bft)
15.07.2010 09:00 18,7 C 97 % 1013,1 hPa 0,8 l/m N-NW 0,08 h 148 W/m 3,1 km/h (1 Bft)
15.07.2010 10:00 19,4 C 90 % 1013,3 hPa 0,0 l/m W 0,08 h 261 W/m 6,8 km/h (2 Bft)
15.07.2010 11:00 19,3 C 87 % 1013,4 hPa 0,0 l/m W 0,17 h 305 W/m 4,0 km/h (1 Bft)
15.07.2010 12:00 20,7 C 77 % 1013,6 hPa 0,0 l/m W 0,67 h 536 W/m 7,9 km/h (2 Bft)
15.07.2010 13:00 22,1 C 65 % 1013,2 hPa 0,0 l/m SW 0,83 h 766 W/m 7,2 km/h (2 Bft)
15.07.2010 14:00 23,5 C 60 % 1013,2 hPa 0,0 l/m SW 0,92 h 778 W/m 8,2 km/h (2 Bft)
15.07.2010 15:00 24,3 C 61 % 1013,1 hPa 0,0 l/m W 1,00 h 752 W/m 8,6 km/h (2 Bft)
15.07.2010 16:00 24,8 C 56 % 1013,1 hPa 0,0 l/m N 1,00 h 645 W/m 7,1 km/h (2 Bft)
15.07.2010 17:00 24,9 C 55 % 1012,9 hPa 0,0 l/m O-SO 1,00 h 503 W/m 7,0 km/h (2 Bft)
15.07.2010 18:00 24,7 C 58 % 1012,7 hPa 0,0 l/m SW 1,00 h 340 W/m 5,1 km/h (1 Bft)
15.07.2010 19:00 24,1 C 62 % 1012,7 hPa 0,0 l/m S-SW 0,33 h 104 W/m 4,3 km/h (1 Bft)
15.07.2010 20:00 23,4 C 69 % 1012,9 hPa 0,0 l/m O-SO 0,00 h 25 W/m 7,5 km/h (2 Bft)
15.07.2010 21:00 21,1 C 81 % 1013,3 hPa 0,0 l/m N 0,00 h 7 W/m 2,0 km/h (1 Bft)
15.07.2010 22:00 19,2 C 90 % 1013,9 hPa 0,0 l/m N 0,00 h 0 W/m 1,1 km/h (0 Bft)
15.07.2010 23:00 18,4 C 92 % 1014,0 hPa 0,0 l/m N 0,00 h 0 W/m 0,8 km/h (0 Bft)
16.07.2010 00:00 17,8 C 94 % 1014,1 hPa 0,0 l/m N 0,00 h 0 W/m 0,7 km/h (0 Bft)
16.07.2010 01:00 17,5 C 95 % 1014,0 hPa 0,0 l/m N 0,00 h 0 W/m 0,5 km/h (0 Bft)
16.07.2010 02:00 17,2 C 96 % 1013,8 hPa 0,0 l/m N-NW 0,00 h 0 W/m 2,7 km/h (1 Bft)
16.07.2010 03:00 16,7 C 96 % 1013,6 hPa 0,0 l/m N 0,00 h 0 W/m 1,5 km/h (1 Bft)
16.07.2010 04:00 16,4 C 97 % 1013,5 hPa 0,0 l/m N 0,00 h 0 W/m 3,1 km/h (1 Bft)
16.07.2010 05:00 16,2 C 97 % 1013,7 hPa 0,0 l/m N-NW 0,00 h 6 W/m 2,8 km/h (1 Bft)
16.07.2010 06:00 16,6 C 97 % 1014,1 hPa 0,0 l/m N-NW 0,08 h 48 W/m 2,8 km/h (1 Bft)
16.07.2010 07:00 17,8 C 95 % 1014,6 hPa 0,0 l/m N 0,33 h 132 W/m 0,8 km/h (0 Bft)
16.07.2010 08:00 19,1 C 92 % 1014,8 hPa 0,0 l/m SW 0,58 h 280 W/m 2,0 km/h (1 Bft)
16.07.2010 09:00 21,4 C 85 % 1014,7 hPa 0,0 l/m SW 1,00 h 516 W/m 2,5 km/h (1 Bft)
16.07.2010 10:00 24,0 C 77 % 1014,2 hPa 0,0 l/m N 1,00 h 676 W/m 4,3 km/h (1 Bft)
16.07.2010 11:00 26,1 C 61 % 1013,9 hPa 0,0 l/m N 1,00 h 786 W/m 6,5 km/h (2 Bft)
16.07.2010 12:00 27,6 C 50 % 1013,9 hPa 0,0 l/m N-NW 1,00 h 847 W/m 7,2 km/h (2 Bft)
16.07.2010 13:00 28,6 C 43 % 1013,7 hPa 0,0 l/m N-NW 1,00 h 865 W/m 7,2 km/h (2 Bft)
16.07.2010 14:00 29,6 C 40 % 1013,4 hPa 0,0 l/m O-NO 1,00 h 831 W/m 7,0 km/h (2 Bft)
16.07.2010 15:00 30,1 C 37 % 1013,0 hPa 0,0 l/m O-NO 1,00 h 758 W/m 7,8 km/h (2 Bft)
16.07.2010 16:00 30,3 C 36 % 1012,7 hPa 0,0 l/m NO 1,00 h 646 W/m 6,8 km/h (2 Bft)
16.07.2010 17:00 30,5 C 34 % 1012,6 hPa 0,0 l/m O-SO 1,00 h 498 W/m 5,2 km/h (1 Bft)
16.07.2010 18:00 29,9 C 39 % 1012,2 hPa 0,0 l/m S-SW 1,00 h 333 W/m 5,6 km/h (1 Bft)
16.07.2010 19:00 28,0 C 52 % 1012,2 hPa 0,0 l/m N 0,25 h 96 W/m 2,0 km/h (1 Bft)
16.07.2010 20:00 25,0 C 60 % 1012,2 hPa 0,0 l/m N 0,00 h 18 W/m 1,2 km/h (1 Bft)
16.07.2010 21:00 23,0 C 66 % 1012,7 hPa 0,0 l/m N 0,00 h 5 W/m 0,9 km/h (0 Bft)
16.07.2010 22:00 22,7 C 65 % 1013,1 hPa 0,0 l/m N-NW 0,00 h 0 W/m 4,3 km/h (1 Bft)
16.07.2010 23:00 23,0 C 66 % 1013,6 hPa 0,0 l/m W-NW 0,00 h 0 W/m 14,9 km/h (3 Bft)
17.07.2010 00:00 21,5 C 77 % 1014,8 hPa 1,0 l/m W-NW 0,00 h 0 W/m 25,9 km/h (4 Bft)
17.07.2010 01:00 19,2 C 86 % 1014,9 hPa 0,2 l/m N-NO 0,00 h 0 W/m 7,0 km/h (2 Bft)
17.07.2010 02:00 18,9 C 90 % 1015,3 hPa 0,0 l/m W-SW 0,00 h 0 W/m 4,0 km/h (1 Bft)
17.07.2010 03:00 18,6 C 91 % 1015,1 hPa 0,0 l/m W-SW 0,00 h 0 W/m 3,7 km/h (1 Bft)
17.07.2010 04:00 18,4 C 93 % 1014,6 hPa 0,0 l/m SO 0,00 h 0 W/m 4,3 km/h (1 Bft)
17.07.2010 05:00 18,4 C 94 % 1014,2 hPa 0,0 l/m N 0,00 h 0 W/m 1,5 km/h (1 Bft)
17.07.2010 06:00 18,3 C 93 % 1013,8 hPa 0,0 l/m W-NW 0,00 h 22 W/m 3,7 km/h (1 Bft)
17.07.2010 07:00 18,4 C 94 % 1014,6 hPa 0,0 l/m N-NW 0,00 h 88 W/m 6,0 km/h (2 Bft)
17.07.2010 08:00 19,4 C 92 % 1015,0 hPa 0,0 l/m N 0,25 h 213 W/m 8,4 km/h (2 Bft)
17.07.2010 09:00 20,6 C 83 % 1015,6 hPa 0,0 l/m N-NO 0,08 h 235 W/m 11,3 km/h (2 Bft)
17.07.2010 10:00 21,7 C 77 % 1015,9 hPa 0,0 l/m N-NW 0,50 h 435 W/m 13,3 km/h (3 Bft)
17.07.2010 11:00 22,7 C 71 % 1016,0 hPa 0,0 l/m N-NO 0,92 h 695 W/m 11,7 km/h (2 Bft)
17.07.2010 12:00 23,6 C 68 % 1015,9 hPa 0,0 l/m N 0,50 h 500 W/m 7,0 km/h (2 Bft)
17.07.2010 13:00 23,1 C 70 % 1016,1 hPa 0,0 l/m N-NW 0,00 h 228 W/m 7,0 km/h (2 Bft)
17.07.2010 14:00 23,4 C 68 % 1016,1 hPa 0,0 l/m N-NO 0,25 h 402 W/m 16,1 km/h (3 Bft)
17.07.2010 15:00 22,8 C 67 % 1016,2 hPa 0,0 l/m N 0,17 h 237 W/m 20,1 km/h (4 Bft)
17.07.2010 16:00 20,7 C 72 % 1016,6 hPa 0,0 l/m N 0,00 h 132 W/m 23,9 km/h (4 Bft)
17.07.2010 17:00 18,7 C 80 % 1017,1 hPa 0,0 l/m NO 0,00 h 57 W/m 25,7 km/h (4 Bft)
17.07.2010 18:00 16,5 C 87 % 1017,6 hPa 2,4 l/m N 0,00 h 10 W/m 19,2 km/h (3 Bft)
17.07.2010 19:00 15,0 C 91 % 1019,1 hPa 3,0 l/m N-NO 0,00 h 6 W/m 7,8 km/h (2 Bft)
17.07.2010 20:00 14,3 C 94 % 1020,7 hPa 5,6 l/m SW 0,00 h 0 W/m 2,7 km/h (1 Bft)
17.07.2010 21:00 14,0 C 95 % 1021,1 hPa 2,6 l/m S-SW 0,00 h 0 W/m 4,3 km/h (1 Bft)
17.07.2010 22:00 14,0 C 97 % 1022,3 hPa 0,0 l/m SW 0,00 h 0 W/m 6,5 km/h (2 Bft)
17.07.2010 23:00 13,8 C 97 % 1022,9 hPa 0,0 l/m SW 0,00 h 0 W/m 10,5 km/h (2 Bft)
18.07.2010 00:00 13,8 C 97 % 1023,2 hPa 0,0 l/m SW 0,00 h 0 W/m 8,4 km/h (2 Bft)
18.07.2010 01:00 13,8 C 96 % 1023,4 hPa 0,0 l/m S 0,00 h 0 W/m 7,4 km/h (2 Bft)
18.07.2010 02:00 13,8 C 97 % 1023,4 hPa 0,0 l/m S-SW 0,00 h 0 W/m 4,4 km/h (1 Bft)
18.07.2010 03:00 13,9 C 97 % 1023,4 hPa 0,0 l/m S-SW 0,00 h 0 W/m 4,1 km/h (1 Bft)
18.07.2010 04:00 14,0 C 98 % 1023,2 hPa 0,0 l/m S-SW 0,00 h 0 W/m 3,5 km/h (1 Bft)
18.07.2010 05:00 13,8 C 98 % 1023,2 hPa 0,0 l/m N 0,00 h 6 W/m 1,2 km/h (1 Bft)
18.07.2010 06:00 13,7 C 98 % 1023,6 hPa 0,0 l/m N 0,00 h 35 W/m 0,8 km/h (0 Bft)
18.07.2010 07:00 13,9 C 98 % 1024,2 hPa 0,0 l/m N 0,00 h 93 W/m 1,1 km/h (0 Bft)
18.07.2010 08:00 15,1 C 91 % 1024,4 hPa 0,0 l/m NO 0,58 h 332 W/m 4,8 km/h (1 Bft)
18.07.2010 09:00 17,0 C 81 % 1024,5 hPa 0,0 l/m N-NO 0,92 h 516 W/m 11,3 km/h (2 Bft)
18.07.2010 10:00 18,0 C 76 % 1024,8 hPa 0,0 l/m O-NO 0,58 h 468 W/m 12,5 km/h (3 Bft)
18.07.2010 11:00 19,3 C 68 % 1024,9 hPa 0,0 l/m O-NO 0,58 h 611 W/m 12,6 km/h (3 Bft)
18.07.2010 12:00 20,1 C 63 % 1024,6 hPa 0,0 l/m O 0,58 h 624 W/m 11,6 km/h (2 Bft)
18.07.2010 13:00 20,9 C 57 % 1024,2 hPa 0,0 l/m O-SO 0,58 h 715 W/m 11,4 km/h (2 Bft)
18.07.2010 14:00 21,7 C 51 % 1024,0 hPa 0,0 l/m O 0,75 h 764 W/m 15,4 km/h (3 Bft)
18.07.2010 15:00 21,8 C 53 % 1023,8 hPa 0,0 l/m NO 0,67 h 610 W/m 12,8 km/h (3 Bft)
18.07.2010 16:00 22,5 C 49 % 1023,4 hPa 0,0 l/m O-NO 1,00 h 703 W/m 14,2 km/h (3 Bft)
18.07.2010 17:00 22,6 C 49 % 1022,9 hPa 0,0 l/m O-NO 0,83 h 474 W/m 14,5 km/h (3 Bft)
18.07.2010 18:00 22,3 C 47 % 1022,3 hPa 0,0 l/m O 1,00 h 348 W/m 14,1 km/h (3 Bft)
18.07.2010 19:00 21,6 C 53 % 1022,0 hPa 0,0 l/m O-NO 0,17 h 77 W/m 12,6 km/h (3 Bft)
18.07.2010 20:00 20,1 C 63 % 1022,0 hPa 0,0 l/m O 0,00 h 24 W/m 12,5 km/h (3 Bft)
18.07.2010 21:00 18,6 C 73 % 1022,1 hPa 0,0 l/m O 0,00 h 6 W/m 5,9 km/h (2 Bft)
18.07.2010 22:00 17,3 C 76 % 1022,1 hPa 0,0 l/m O-NO 0,00 h 0 W/m 5,6 km/h (1 Bft)
18.07.2010 23:00 16,1 C 81 % 1022,1 hPa 0,0 l/m NO 0,00 h 0 W/m 5,1 km/h (1 Bft)
Min-Datum _ 18.07.10 14.07.10 14.07.10 - - - - 12.07.10
_ Min-Zeit 05:55 17:25 20:40 - - - - 00:45
Minimum _ 13,6 C 31 % 1002,9 hPa - - - - 0,0 km/h (0 Bft)
Max-Datum _ 14.07.10 12.07.10 18.07.10 17.07.10 - 12.07.10 18.07.10 14.07.10
_ Max-Zeit 16:45 05:15 11:05 20:55 - 18:00 13:50 22:05
Maximum _ 33,1 C 98 % 1025,1 hPa 5,6 l/m - 0,17 h 1060 W/m 57,9 km/h
N-NW (7 Bft)
Durchschnitt _ 21,2 C 76 % 1013,8 hPa #35,4 l/m SW #62:30 h 383 W/m 7,1 km/h (2 Bft)